sensor_id;sensor_type;location;lat;lon;timestamp;temperature;humidity
56861;DHT22;42744;51.094;3.490;2022-08-30T00:00:09;15.90;99.90
56861;DHT22;42744;51.094;3.490;2022-08-30T00:02:58;15.90;99.90
56861;DHT22;42744;51.094;3.490;2022-08-30T00:05:26;15.90;99.90
56861;DHT22;42744;51.094;3.490;2022-08-30T00:07:53;15.90;99.90
56861;DHT22;42744;51.094;3.490;2022-08-30T00:10:19;15.90;99.90
56861;DHT22;42744;51.094;3.490;2022-08-30T00:12:46;15.80;99.90
56861;DHT22;42744;51.094;3.490;2022-08-30T00:15:14;15.90;99.90
56861;DHT22;42744;51.094;3.490;2022-08-30T00:17:41;15.80;99.90
56861;DHT22;42744;51.094;3.490;2022-08-30T00:20:11;15.80;99.90
56861;DHT22;42744;51.094;3.490;2022-08-30T00:22:38;15.80;99.90
56861;DHT22;42744;51.094;3.490;2022-08-30T00:25:05;15.80;99.90
56861;DHT22;42744;51.094;3.490;2022-08-30T00:27:31;15.80;99.90
56861;DHT22;42744;51.094;3.490;2022-08-30T00:29:58;15.80;99.90
56861;DHT22;42744;51.094;3.490;2022-08-30T00:32:24;15.80;99.90
56861;DHT22;42744;51.094;3.490;2022-08-30T00:34:51;15.70;99.90
56861;DHT22;42744;51.094;3.490;2022-08-30T00:37:17;15.70;99.90
56861;DHT22;42744;51.094;3.490;2022-08-30T00:39:44;15.70;99.90
56861;DHT22;42744;51.094;3.490;2022-08-30T00:42:10;15.70;99.90
56861;DHT22;42744;51.094;3.490;2022-08-30T00:44:38;15.60;99.90
56861;DHT22;42744;51.094;3.490;2022-08-30T00:47:04;15.60;99.90
56861;DHT22;42744;51.094;3.490;2022-08-30T00:49:32;15.60;99.90
56861;DHT22;42744;51.094;3.490;2022-08-30T00:51:59;15.70;99.90
56861;DHT22;42744;51.094;3.490;2022-08-30T00:54:27;15.60;99.90
56861;DHT22;42744;51.094;3.490;2022-08-30T00:56:53;15.60;99.90
56861;DHT22;42744;51.094;3.490;2022-08-30T00:59:20;15.60;99.90
56861;DHT22;42744;51.094;3.490;2022-08-30T01:01:49;15.70;99.90
56861;DHT22;42744;51.094;3.490;2022-08-30T01:04:15;15.70;99.90
56861;DHT22;42744;51.094;3.490;2022-08-30T01:06:44;15.70;99.90
56861;DHT22;42744;51.094;3.490;2022-08-30T01:09:11;15.80;99.90
56861;DHT22;42744;51.094;3.490;2022-08-30T01:11:38;15.90;99.90
56861;DHT22;42744;51.094;3.490;2022-08-30T01:14:07;15.80;99.90
56861;DHT22;42744;51.094;3.490;2022-08-30T01:16:34;15.90;99.90
56861;DHT22;42744;51.094;3.490;2022-08-30T01:19:01;15.90;99.90
56861;DHT22;42744;51.094;3.490;2022-08-30T01:21:37;15.90;99.90
56861;DHT22;42744;51.094;3.490;2022-08-30T01:24:06;15.90;99.90
56861;DHT22;42744;51.094;3.490;2022-08-30T01:26:34;15.90;99.90
56861;DHT22;42744;51.094;3.490;2022-08-30T01:29:05;15.90;99.90
56861;DHT22;42744;51.094;3.490;2022-08-30T01:31:32;15.90;99.90
56861;DHT22;42744;51.094;3.490;2022-08-30T01:34:05;15.90;99.90
56861;DHT22;42744;51.094;3.490;2022-08-30T01:36:36;15.90;99.90
56861;DHT22;42744;51.094;3.490;2022-08-30T01:39:04;16.00;99.90
56861;DHT22;42744;51.094;3.490;2022-08-30T01:41:32;16.00;99.90
56861;DHT22;42744;51.094;3.490;2022-08-30T01:44:02;16.00;99.90
56861;DHT22;42744;51.094;3.490;2022-08-30T01:46:34;16.00;99.90
56861;DHT22;42744;51.094;3.490;2022-08-30T01:49:05;16.00;99.90
56861;DHT22;42744;51.094;3.490;2022-08-30T01:51:31;16.00;99.90
56861;DHT22;42744;51.094;3.490;2022-08-30T01:53:57;16.10;99.90
56861;DHT22;42744;51.094;3.490;2022-08-30T01:56:24;16.10;99.90
56861;DHT22;42744;51.094;3.490;2022-08-30T01:58:52;16.10;99.90
56861;DHT22;42744;51.094;3.490;2022-08-30T02:01:24;16.00;99.90
56861;DHT22;42744;51.094;3.490;2022-08-30T02:03:53;16.00;99.90
56861;DHT22;42744;51.094;3.490;2022-08-30T02:06:21;16.00;99.90
56861;DHT22;42744;51.094;3.490;2022-08-30T02:08:47;16.00;99.90
56861;DHT22;42744;51.094;3.490;2022-08-30T02:11:14;16.00;99.90
56861;DHT22;42744;51.094;3.490;2022-08-30T02:13:41;15.90;99.90
56861;DHT22;42744;51.094;3.490;2022-08-30T02:16:12;15.90;99.90
56861;DHT22;42744;51.094;3.490;2022-08-30T02:18:42;15.90;99.90
56861;DHT22;42744;51.094;3.490;2022-08-30T02:21:09;15.90;99.90
56861;DHT22;42744;51.094;3.490;2022-08-30T02:23:36;15.90;99.90
56861;DHT22;42744;51.094;3.490;2022-08-30T02:26:03;15.90;99.90
56861;DHT22;42744;51.094;3.490;2022-08-30T02:28:29;15.90;99.90
56861;DHT22;42744;51.094;3.490;2022-08-30T02:30:55;15.80;99.90
56861;DHT22;42744;51.094;3.490;2022-08-30T02:33:21;15.80;99.90
56861;DHT22;42744;51.094;3.490;2022-08-30T02:35:47;15.80;99.90
56861;DHT22;42744;51.094;3.490;2022-08-30T02:38:13;15.80;99.90
56861;DHT22;42744;51.094;3.490;2022-08-30T02:40:39;15.80;99.90
56861;DHT22;42744;51.094;3.490;2022-08-30T02:43:05;15.70;99.90
56861;DHT22;42744;51.094;3.490;2022-08-30T02:45:32;15.70;99.90
56861;DHT22;42744;51.094;3.490;2022-08-30T02:47:58;15.70;99.90
56861;DHT22;42744;51.094;3.490;2022-08-30T02:50:24;15.70;99.90
56861;DHT22;42744;51.094;3.490;2022-08-30T02:52:59;15.70;99.90
56861;DHT22;42744;51.094;3.490;2022-08-30T02:55:38;15.70;99.90
56861;DHT22;42744;51.094;3.490;2022-08-30T02:58:04;15.70;99.90
56861;DHT22;42744;51.094;3.490;2022-08-30T03:00:34;15.70;99.90
56861;DHT22;42744;51.094;3.490;2022-08-30T03:03:00;15.70;99.90
56861;DHT22;42744;51.094;3.490;2022-08-30T03:05:30;15.70;99.90
56861;DHT22;42744;51.094;3.490;2022-08-30T03:07:56;15.70;99.90
56861;DHT22;42744;51.094;3.490;2022-08-30T03:10:26;15.70;99.90
56861;DHT22;42744;51.094;3.490;2022-08-30T03:12:53;15.60;99.90
56861;DHT22;42744;51.094;3.490;2022-08-30T03:15:20;15.70;99.90
56861;DHT22;42744;51.094;3.490;2022-08-30T03:17:51;15.70;99.90
56861;DHT22;42744;51.094;3.490;2022-08-30T03:20:19;15.70;99.90
56861;DHT22;42744;51.094;3.490;2022-08-30T03:22:44;15.70;99.90
56861;DHT22;42744;51.094;3.490;2022-08-30T03:25:11;15.60;99.90
56861;DHT22;42744;51.094;3.490;2022-08-30T03:27:37;15.60;99.90
56861;DHT22;42744;51.094;3.490;2022-08-30T03:30:04;15.60;99.90
56861;DHT22;42744;51.094;3.490;2022-08-30T03:32:31;15.60;99.90
56861;DHT22;42744;51.094;3.490;2022-08-30T03:34:56;15.60;99.90
56861;DHT22;42744;51.094;3.490;2022-08-30T03:37:22;15.60;99.90
56861;DHT22;42744;51.094;3.490;2022-08-30T03:39:49;15.60;99.90
56861;DHT22;42744;51.094;3.490;2022-08-30T03:42:14;15.50;99.90
56861;DHT22;42744;51.094;3.490;2022-08-30T03:44:40;15.50;99.90
56861;DHT22;42744;51.094;3.490;2022-08-30T03:47:07;15.50;99.90
56861;DHT22;42744;51.094;3.490;2022-08-30T03:49:33;15.50;99.90
56861;DHT22;42744;51.094;3.490;2022-08-30T03:51:59;15.50;99.90
56861;DHT22;42744;51.094;3.490;2022-08-30T03:54:25;15.50;99.90
56861;DHT22;42744;51.094;3.490;2022-08-30T03:56:51;15.50;99.90
56861;DHT22;42744;51.094;3.490;2022-08-30T03:59:17;15.50;99.90
56861;DHT22;42744;51.094;3.490;2022-08-30T04:01:43;15.50;99.90
56861;DHT22;42744;51.094;3.490;2022-08-30T04:04:11;15.40;99.90
56861;DHT22;42744;51.094;3.490;2022-08-30T04:06:36;15.40;99.90
56861;DHT22;42744;51.094;3.490;2022-08-30T04:09:03;15.40;99.90
56861;DHT22;42744;51.094;3.490;2022-08-30T04:11:29;15.40;99.90
56861;DHT22;42744;51.094;3.490;2022-08-30T04:13:55;15.40;99.90
56861;DHT22;42744;51.094;3.490;2022-08-30T04:16:22;15.40;99.90
56861;DHT22;42744;51.094;3.490;2022-08-30T04:18:50;15.50;99.90
56861;DHT22;42744;51.094;3.490;2022-08-30T04:21:19;15.50;99.90
56861;DHT22;42744;51.094;3.490;2022-08-30T04:23:45;15.60;99.90
56861;DHT22;42744;51.094;3.490;2022-08-30T04:26:12;15.60;99.90
56861;DHT22;42744;51.094;3.490;2022-08-30T04:28:38;15.60;99.90
56861;DHT22;42744;51.094;3.490;2022-08-30T04:31:13;15.70;99.90
56861;DHT22;42744;51.094;3.490;2022-08-30T04:33:41;15.70;99.90
56861;DHT22;42744;51.094;3.490;2022-08-30T04:36:08;15.70;99.90
56861;DHT22;42744;51.094;3.490;2022-08-30T04:38:35;15.70;99.90
56861;DHT22;42744;51.094;3.490;2022-08-30T04:41:02;15.80;99.90
56861;DHT22;42744;51.094;3.490;2022-08-30T04:43:33;15.90;99.90
56861;DHT22;42744;51.094;3.490;2022-08-30T04:45:59;15.90;99.90
56861;DHT22;42744;51.094;3.490;2022-08-30T04:48:29;15.90;99.90
56861;DHT22;42744;51.094;3.490;2022-08-30T04:50:55;15.90;99.90
56861;DHT22;42744;51.094;3.490;2022-08-30T04:53:21;16.00;99.90
56861;DHT22;42744;51.094;3.490;2022-08-30T04:55:47;16.00;99.90
56861;DHT22;42744;51.094;3.490;2022-08-30T04:58:13;16.00;99.90
56861;DHT22;42744;51.094;3.490;2022-08-30T05:00:39;15.90;99.90
56861;DHT22;42744;51.094;3.490;2022-08-30T05:03:07;15.90;99.90
56861;DHT22;42744;51.094;3.490;2022-08-30T05:05:33;15.90;99.90
56861;DHT22;42744;51.094;3.490;2022-08-30T05:08:12;15.90;99.90
56861;DHT22;42744;51.094;3.490;2022-08-30T05:10:39;15.80;99.90
56861;DHT22;42744;51.094;3.490;2022-08-30T05:13:06;15.80;99.90
56861;DHT22;42744;51.094;3.490;2022-08-30T05:15:33;15.80;99.90
56861;DHT22;42744;51.094;3.490;2022-08-30T05:17:59;15.70;99.90
56861;DHT22;42744;51.094;3.490;2022-08-30T05:20:25;15.70;99.90
56861;DHT22;42744;51.094;3.490;2022-08-30T05:22:51;15.70;99.90
56861;DHT22;42744;51.094;3.490;2022-08-30T05:25:23;15.70;99.90
56861;DHT22;42744;51.094;3.490;2022-08-30T05:27:49;15.70;99.90
56861;DHT22;42744;51.094;3.490;2022-08-30T05:30:16;15.70;99.90
56861;DHT22;42744;51.094;3.490;2022-08-30T05:32:42;15.80;99.90
56861;DHT22;42744;51.094;3.490;2022-08-30T05:35:11;15.90;99.90
56861;DHT22;42744;51.094;3.490;2022-08-30T05:37:37;15.90;99.90
56861;DHT22;42744;51.094;3.490;2022-08-30T05:40:04;15.90;99.90
56861;DHT22;42744;51.094;3.490;2022-08-30T05:42:31;15.90;99.90
56861;DHT22;42744;51.094;3.490;2022-08-30T05:44:57;16.00;99.90
56861;DHT22;42744;51.094;3.490;2022-08-30T05:47:23;16.00;99.90
56861;DHT22;42744;51.094;3.490;2022-08-30T05:49:49;16.10;99.90
56861;DHT22;42744;51.094;3.490;2022-08-30T05:52:16;16.10;99.90
56861;DHT22;42744;51.094;3.490;2022-08-30T05:54:52;16.20;99.90
56861;DHT22;42744;51.094;3.490;2022-08-30T05:57:18;16.20;99.90
56861;DHT22;42744;51.094;3.490;2022-08-30T05:59:44;16.20;99.90
56861;DHT22;42744;51.094;3.490;2022-08-30T06:02:10;16.20;99.90
56861;DHT22;42744;51.094;3.490;2022-08-30T06:04:36;16.30;99.90
56861;DHT22;42744;51.094;3.490;2022-08-30T06:07:03;16.30;99.90
56861;DHT22;42744;51.094;3.490;2022-08-30T06:09:32;16.30;99.90
56861;DHT22;42744;51.094;3.490;2022-08-30T06:11:59;16.30;99.90
56861;DHT22;42744;51.094;3.490;2022-08-30T06:14:27;16.40;99.90
56861;DHT22;42744;51.094;3.490;2022-08-30T06:16:53;16.40;99.90
56861;DHT22;42744;51.094;3.490;2022-08-30T06:19:19;16.40;99.90
56861;DHT22;42744;51.094;3.490;2022-08-30T06:21:49;16.50;99.90
56861;DHT22;42744;51.094;3.490;2022-08-30T06:24:16;16.50;99.90
56861;DHT22;42744;51.094;3.490;2022-08-30T06:26:44;16.60;99.90
56861;DHT22;42744;51.094;3.490;2022-08-30T06:29:13;16.60;99.90
56861;DHT22;42744;51.094;3.490;2022-08-30T06:31:39;16.70;99.90
56861;DHT22;42744;51.094;3.490;2022-08-30T06:34:05;16.70;99.90
56861;DHT22;42744;51.094;3.490;2022-08-30T06:36:32;16.70;99.90
56861;DHT22;42744;51.094;3.490;2022-08-30T06:38:59;16.80;99.90
56861;DHT22;42744;51.094;3.490;2022-08-30T06:41:27;16.80;99.90
56861;DHT22;42744;51.094;3.490;2022-08-30T06:43:55;16.90;99.90
56861;DHT22;42744;51.094;3.490;2022-08-30T06:46:23;16.90;99.90
56861;DHT22;42744;51.094;3.490;2022-08-30T06:48:50;16.90;99.90
56861;DHT22;42744;51.094;3.490;2022-08-30T06:51:21;16.90;99.90
56861;DHT22;42744;51.094;3.490;2022-08-30T06:53:48;17.00;99.90
56861;DHT22;42744;51.094;3.490;2022-08-30T06:56:15;17.10;99.90
56861;DHT22;42744;51.094;3.490;2022-08-30T06:58:41;17.10;99.90
56861;DHT22;42744;51.094;3.490;2022-08-30T07:01:11;17.20;99.90
56861;DHT22;42744;51.094;3.490;2022-08-30T07:03:38;17.20;99.90
56861;DHT22;42744;51.094;3.490;2022-08-30T07:06:05;17.20;99.90
56861;DHT22;42744;51.094;3.490;2022-08-30T07:08:31;17.30;99.90
56861;DHT22;42744;51.094;3.490;2022-08-30T07:10:57;17.40;99.90
56861;DHT22;42744;51.094;3.490;2022-08-30T07:13:23;17.40;99.90
56861;DHT22;42744;51.094;3.490;2022-08-30T07:15:49;17.50;99.90
56861;DHT22;42744;51.094;3.490;2022-08-30T07:18:16;17.50;99.90
56861;DHT22;42744;51.094;3.490;2022-08-30T07:21:12;17.60;99.90
56861;DHT22;42744;51.094;3.490;2022-08-30T07:23:39;17.70;99.90
56861;DHT22;42744;51.094;3.490;2022-08-30T07:26:07;17.70;99.90
56861;DHT22;42744;51.094;3.490;2022-08-30T07:28:35;17.80;99.90
56861;DHT22;42744;51.094;3.490;2022-08-30T07:31:05;17.90;99.90
56861;DHT22;42744;51.094;3.490;2022-08-30T07:33:31;18.00;99.90
56861;DHT22;42744;51.094;3.490;2022-08-30T07:35:58;18.10;99.90
56861;DHT22;42744;51.094;3.490;2022-08-30T07:38:27;18.10;99.90
56861;DHT22;42744;51.094;3.490;2022-08-30T07:40:53;18.30;99.90
56861;DHT22;42744;51.094;3.490;2022-08-30T07:43:19;18.30;99.90
56861;DHT22;42744;51.094;3.490;2022-08-30T07:45:45;18.40;99.90
56861;DHT22;42744;51.094;3.490;2022-08-30T07:48:12;18.40;99.90
56861;DHT22;42744;51.094;3.490;2022-08-30T07:50:42;18.50;99.90
56861;DHT22;42744;51.094;3.490;2022-08-30T07:53:09;18.60;99.90
56861;DHT22;42744;51.094;3.490;2022-08-30T07:55:35;18.60;99.90
56861;DHT22;42744;51.094;3.490;2022-08-30T07:58:01;18.70;99.90
56861;DHT22;42744;51.094;3.490;2022-08-30T08:00:27;18.80;99.90
56861;DHT22;42744;51.094;3.490;2022-08-30T08:02:54;18.90;99.90
56861;DHT22;42744;51.094;3.490;2022-08-30T08:05:20;19.00;99.90
56861;DHT22;42744;51.094;3.490;2022-08-30T08:07:46;19.10;99.90
56861;DHT22;42744;51.094;3.490;2022-08-30T08:10:12;19.20;99.90
56861;DHT22;42744;51.094;3.490;2022-08-30T08:12:39;19.20;99.90
56861;DHT22;42744;51.094;3.490;2022-08-30T08:15:05;19.30;99.90
56861;DHT22;42744;51.094;3.490;2022-08-30T08:17:32;19.30;99.90
56861;DHT22;42744;51.094;3.490;2022-08-30T08:19:58;19.30;99.90
56861;DHT22;42744;51.094;3.490;2022-08-30T08:22:24;19.40;99.90
56861;DHT22;42744;51.094;3.490;2022-08-30T08:24:50;19.40;99.90
56861;DHT22;42744;51.094;3.490;2022-08-30T08:27:16;19.50;99.90
56861;DHT22;42744;51.094;3.490;2022-08-30T08:29:43;19.60;99.90
56861;DHT22;42744;51.094;3.490;2022-08-30T08:32:09;19.60;99.90
56861;DHT22;42744;51.094;3.490;2022-08-30T08:34:35;19.70;99.90
56861;DHT22;42744;51.094;3.490;2022-08-30T08:37:01;19.80;99.90
56861;DHT22;42744;51.094;3.490;2022-08-30T08:39:27;20.00;99.90
56861;DHT22;42744;51.094;3.490;2022-08-30T08:42:03;20.10;99.90
56861;DHT22;42744;51.094;3.490;2022-08-30T08:50:24;20.40;99.90
56861;DHT22;42744;51.094;3.490;2022-08-30T08:55:51;20.60;99.90
56861;DHT22;42744;51.094;3.490;2022-08-30T08:58:23;20.70;99.90
56861;DHT22;42744;51.094;3.490;2022-08-30T09:00:51;20.70;99.90
56861;DHT22;42744;51.094;3.490;2022-08-30T09:03:20;20.90;99.90
56861;DHT22;42744;51.094;3.490;2022-08-30T09:05:47;21.00;99.90
56861;DHT22;42744;51.094;3.490;2022-08-30T09:08:15;21.00;99.90
56861;DHT22;42744;51.094;3.490;2022-08-30T09:10:57;21.10;99.90
56861;DHT22;42744;51.094;3.490;2022-08-30T09:13:25;21.10;99.90
56861;DHT22;42744;51.094;3.490;2022-08-30T09:15:52;21.10;99.90
56861;DHT22;42744;51.094;3.490;2022-08-30T09:18:19;21.20;99.90
56861;DHT22;42744;51.094;3.490;2022-08-30T09:20:49;21.20;99.90
56861;DHT22;42744;51.094;3.490;2022-08-30T09:23:21;21.30;99.90
56861;DHT22;42744;51.094;3.490;2022-08-30T09:28:26;21.40;99.90
56861;DHT22;42744;51.094;3.490;2022-08-30T09:31:06;21.50;99.90
56861;DHT22;42744;51.094;3.490;2022-08-30T09:33:32;21.50;99.90
56861;DHT22;42744;51.094;3.490;2022-08-30T09:36:12;21.60;99.90
56861;DHT22;42744;51.094;3.490;2022-08-30T09:38:38;21.70;99.90
56861;DHT22;42744;51.094;3.490;2022-08-30T09:41:29;21.70;99.90
56861;DHT22;42744;51.094;3.490;2022-08-30T09:44:23;21.80;99.90
56861;DHT22;42744;51.094;3.490;2022-08-30T09:46:52;21.90;99.90
56861;DHT22;42744;51.094;3.490;2022-08-30T09:49:39;21.90;99.90
56861;DHT22;42744;51.094;3.490;2022-08-30T09:54:47;21.90;99.90
56861;DHT22;42744;51.094;3.490;2022-08-30T09:57:41;22.00;99.90
56861;DHT22;42744;51.094;3.490;2022-08-30T10:00:22;22.10;99.90
56861;DHT22;42744;51.094;3.490;2022-08-30T10:03:02;22.10;99.90
56861;DHT22;42744;51.094;3.490;2022-08-30T10:15:59;22.30;99.90
56861;DHT22;42744;51.094;3.490;2022-08-30T10:21:10;22.30;99.90
56861;DHT22;42744;51.094;3.490;2022-08-30T10:23:49;22.40;99.90
56861;DHT22;42744;51.094;3.490;2022-08-30T10:29:09;22.40;99.90
56861;DHT22;42744;51.094;3.490;2022-08-30T10:34:11;22.60;99.90
56861;DHT22;42744;51.094;3.490;2022-08-30T10:36:45;22.80;99.90
56861;DHT22;42744;51.094;3.490;2022-08-30T10:39:18;23.00;99.90
56861;DHT22;42744;51.094;3.490;2022-08-30T10:41:57;23.10;99.90
56861;DHT22;42744;51.094;3.490;2022-08-30T10:44:32;23.20;99.90
56861;DHT22;42744;51.094;3.490;2022-08-30T10:47:09;23.30;99.90
56861;DHT22;42744;51.094;3.490;2022-08-30T10:49:49;23.40;99.90
56861;DHT22;42744;51.094;3.490;2022-08-30T10:52:41;23.50;99.90
56861;DHT22;42744;51.094;3.490;2022-08-30T10:55:18;23.60;99.90
56861;DHT22;42744;51.094;3.490;2022-08-30T10:57:47;23.90;99.90
56861;DHT22;42744;51.094;3.490;2022-08-30T11:00:27;23.80;99.90
56861;DHT22;42744;51.094;3.490;2022-08-30T11:06:24;23.60;99.90
56861;DHT22;42744;51.094;3.490;2022-08-30T11:14:33;24.20;99.90
56861;DHT22;42744;51.094;3.490;2022-08-30T11:17:03;24.30;99.90
56861;DHT22;42744;51.094;3.490;2022-08-30T11:19:38;24.40;99.90
56861;DHT22;42744;51.094;3.490;2022-08-30T11:27:50;24.40;99.90
56861;DHT22;42744;51.094;3.490;2022-08-30T11:33:02;24.80;99.90
56861;DHT22;42744;51.094;3.490;2022-08-30T11:35:44;25.00;99.90
56861;DHT22;42744;51.094;3.490;2022-08-30T11:49:05;25.50;98.20
56861;DHT22;42744;51.094;3.490;2022-08-30T12:00:34;25.80;98.10
56861;DHT22;42744;51.094;3.490;2022-08-30T12:03:06;25.90;96.50
56861;DHT22;42744;51.094;3.490;2022-08-30T12:05:54;26.00;97.40
56861;DHT22;42744;51.094;3.490;2022-08-30T12:11:05;26.60;94.30
56861;DHT22;42744;51.094;3.490;2022-08-30T12:16:05;26.60;94.00
56861;DHT22;42744;51.094;3.490;2022-08-30T12:24:02;26.00;94.30
56861;DHT22;42744;51.094;3.490;2022-08-30T12:26:32;26.00;94.00
56861;DHT22;42744;51.094;3.490;2022-08-30T12:36:53;26.60;92.30
56861;DHT22;42744;51.094;3.490;2022-08-30T12:39:23;26.50;91.40
56861;DHT22;42744;51.094;3.490;2022-08-30T12:41:50;26.50;91.80
56861;DHT22;42744;51.094;3.490;2022-08-30T12:44:22;26.70;91.30
56861;DHT22;42744;51.094;3.490;2022-08-30T12:46:53;26.60;91.30
56861;DHT22;42744;51.094;3.490;2022-08-30T12:49:23;26.70;91.60
56861;DHT22;42744;51.094;3.490;2022-08-30T12:51:50;26.60;92.00
56861;DHT22;42744;51.094;3.490;2022-08-30T12:54:24;26.70;90.90
56861;DHT22;42744;51.094;3.490;2022-08-30T12:57:01;26.80;91.30
56861;DHT22;42744;51.094;3.490;2022-08-30T13:02:23;26.90;90.00
56861;DHT22;42744;51.094;3.490;2022-08-30T13:04:51;27.00;90.40
56861;DHT22;42744;51.094;3.490;2022-08-30T13:07:25;27.50;90.00
56861;DHT22;42744;51.094;3.490;2022-08-30T13:12:29;27.80;90.50
56861;DHT22;42744;51.094;3.490;2022-08-30T13:15:17;27.60;90.60
56861;DHT22;42744;51.094;3.490;2022-08-30T13:17:45;27.60;90.60
56861;DHT22;42744;51.094;3.490;2022-08-30T13:22:39;27.00;90.30
56861;DHT22;42744;51.094;3.490;2022-08-30T13:25:08;26.90;90.70
56861;DHT22;42744;51.094;3.490;2022-08-30T13:27:36;27.10;90.40
56861;DHT22;42744;51.094;3.490;2022-08-30T13:30:08;27.40;90.20
56861;DHT22;42744;51.094;3.490;2022-08-30T13:32:35;27.60;88.40
56861;DHT22;42744;51.094;3.490;2022-08-30T13:35:06;27.70;88.60
56861;DHT22;42744;51.094;3.490;2022-08-30T13:37:32;28.00;88.30
56861;DHT22;42744;51.094;3.490;2022-08-30T13:39:58;27.90;86.60
56861;DHT22;42744;51.094;3.490;2022-08-30T13:42:25;27.80;88.80
56861;DHT22;42744;51.094;3.490;2022-08-30T13:44:50;28.00;87.60
56861;DHT22;42744;51.094;3.490;2022-08-30T13:47:18;27.70;86.70
56861;DHT22;42744;51.094;3.490;2022-08-30T13:49:44;27.80;87.10
56861;DHT22;42744;51.094;3.490;2022-08-30T13:52:14;28.00;87.10
56861;DHT22;42744;51.094;3.490;2022-08-30T13:54:41;27.70;85.40
56861;DHT22;42744;51.094;3.490;2022-08-30T13:57:06;27.30;87.20
56861;DHT22;42744;51.094;3.490;2022-08-30T13:59:32;27.10;87.70
56861;DHT22;42744;51.094;3.490;2022-08-30T14:01:59;27.10;87.00
56861;DHT22;42744;51.094;3.490;2022-08-30T14:04:27;27.10;88.60
56861;DHT22;42744;51.094;3.490;2022-08-30T14:06:53;27.10;87.00
56861;DHT22;42744;51.094;3.490;2022-08-30T14:09:22;27.20;88.50
56861;DHT22;42744;51.094;3.490;2022-08-30T14:11:48;26.90;87.00
56861;DHT22;42744;51.094;3.490;2022-08-30T14:14:13;26.60;87.70
56861;DHT22;42744;51.094;3.490;2022-08-30T14:16:42;26.70;89.20
56861;DHT22;42744;51.094;3.490;2022-08-30T14:19:09;26.80;87.30
56861;DHT22;42744;51.094;3.490;2022-08-30T14:21:36;26.90;87.00
56861;DHT22;42744;51.094;3.490;2022-08-30T14:24:03;27.00;86.50
56861;DHT22;42744;51.094;3.490;2022-08-30T14:26:36;27.30;88.20
56861;DHT22;42744;51.094;3.490;2022-08-30T14:29:08;27.30;86.70
56861;DHT22;42744;51.094;3.490;2022-08-30T14:31:37;27.40;84.50
56861;DHT22;42744;51.094;3.490;2022-08-30T14:34:03;27.30;85.20
56861;DHT22;42744;51.094;3.490;2022-08-30T14:36:30;27.30;85.20
56861;DHT22;42744;51.094;3.490;2022-08-30T14:38:56;27.20;85.80
56861;DHT22;42744;51.094;3.490;2022-08-30T14:41:23;27.10;84.90
56861;DHT22;42744;51.094;3.490;2022-08-30T14:43:50;27.10;84.90
56861;DHT22;42744;51.094;3.490;2022-08-30T14:46:16;27.20;84.70
56861;DHT22;42744;51.094;3.490;2022-08-30T14:48:42;27.00;83.30
56861;DHT22;42744;51.094;3.490;2022-08-30T14:51:18;26.80;86.00
56861;DHT22;42744;51.094;3.490;2022-08-30T14:53:45;26.60;84.70
56861;DHT22;42744;51.094;3.490;2022-08-30T14:56:15;26.50;84.50
56861;DHT22;42744;51.094;3.490;2022-08-30T14:58:42;26.30;84.90
56861;DHT22;42744;51.094;3.490;2022-08-30T15:01:09;26.00;84.60
56861;DHT22;42744;51.094;3.490;2022-08-30T15:03:37;25.50;85.60
56861;DHT22;42744;51.094;3.490;2022-08-30T15:06:04;25.50;86.10
56861;DHT22;42744;51.094;3.490;2022-08-30T15:08:31;25.60;86.70
56861;DHT22;42744;51.094;3.490;2022-08-30T15:10:58;25.40;85.70
56861;DHT22;42744;51.094;3.490;2022-08-30T15:13:25;25.30;86.50
56861;DHT22;42744;51.094;3.490;2022-08-30T15:15:51;25.20;85.60
56861;DHT22;42744;51.094;3.490;2022-08-30T15:18:17;25.10;87.20
56861;DHT22;42744;51.094;3.490;2022-08-30T15:20:45;25.40;87.10
56861;DHT22;42744;51.094;3.490;2022-08-30T15:23:11;25.60;85.10
56861;DHT22;42744;51.094;3.490;2022-08-30T15:25:37;25.50;86.20
56861;DHT22;42744;51.094;3.490;2022-08-30T15:28:03;25.50;86.10
56861;DHT22;42744;51.094;3.490;2022-08-30T15:30:29;25.50;85.90
56861;DHT22;42744;51.094;3.490;2022-08-30T15:32:55;25.40;85.50
56861;DHT22;42744;51.094;3.490;2022-08-30T15:35:21;25.30;86.50
56861;DHT22;42744;51.094;3.490;2022-08-30T15:37:47;25.20;84.60
56861;DHT22;42744;51.094;3.490;2022-08-30T15:40:13;25.00;85.80
56861;DHT22;42744;51.094;3.490;2022-08-30T15:42:39;24.90;85.80
56861;DHT22;42744;51.094;3.490;2022-08-30T15:45:06;24.70;86.10
56861;DHT22;42744;51.094;3.490;2022-08-30T15:47:32;24.70;85.60
56861;DHT22;42744;51.094;3.490;2022-08-30T15:50:00;24.60;86.00
56861;DHT22;42744;51.094;3.490;2022-08-30T15:52:30;24.60;86.20
56861;DHT22;42744;51.094;3.490;2022-08-30T15:54:56;24.70;86.80
56861;DHT22;42744;51.094;3.490;2022-08-30T15:57:22;24.70;86.00
56861;DHT22;42744;51.094;3.490;2022-08-30T15:59:49;24.60;86.40
56861;DHT22;42744;51.094;3.490;2022-08-30T16:02:15;24.60;86.50
56861;DHT22;42744;51.094;3.490;2022-08-30T16:04:42;24.60;86.30
56861;DHT22;42744;51.094;3.490;2022-08-30T16:07:08;24.60;85.30
56861;DHT22;42744;51.094;3.490;2022-08-30T16:09:34;24.50;85.70
56861;DHT22;42744;51.094;3.490;2022-08-30T16:12:03;24.50;86.00
56861;DHT22;42744;51.094;3.490;2022-08-30T16:14:29;24.50;86.00
56861;DHT22;42744;51.094;3.490;2022-08-30T16:16:56;24.50;87.20
56861;DHT22;42744;51.094;3.490;2022-08-30T16:19:23;24.40;84.00
56861;DHT22;42744;51.094;3.490;2022-08-30T16:21:48;24.40;84.50
56861;DHT22;42744;51.094;3.490;2022-08-30T16:24:14;24.30;85.20
56861;DHT22;42744;51.094;3.490;2022-08-30T16:26:43;24.30;84.00
56861;DHT22;42744;51.094;3.490;2022-08-30T16:29:09;24.20;85.00
56861;DHT22;42744;51.094;3.490;2022-08-30T16:31:37;24.10;83.60
56861;DHT22;42744;51.094;3.490;2022-08-30T16:34:04;24.00;85.30
56861;DHT22;42744;51.094;3.490;2022-08-30T16:36:31;24.00;84.20
56861;DHT22;42744;51.094;3.490;2022-08-30T16:38:58;24.00;83.70
56861;DHT22;42744;51.094;3.490;2022-08-30T16:41:24;23.90;83.80
56861;DHT22;42744;51.094;3.490;2022-08-30T16:43:51;23.80;84.20
56861;DHT22;42744;51.094;3.490;2022-08-30T16:46:18;23.80;84.30
56861;DHT22;42744;51.094;3.490;2022-08-30T16:48:45;23.90;85.60
56861;DHT22;42744;51.094;3.490;2022-08-30T16:51:17;24.00;85.30
56861;DHT22;42744;51.094;3.490;2022-08-30T16:53:44;24.10;83.50
56861;DHT22;42744;51.094;3.490;2022-08-30T16:56:13;24.10;83.70
56861;DHT22;42744;51.094;3.490;2022-08-30T16:58:40;23.90;83.70
56861;DHT22;42744;51.094;3.490;2022-08-30T17:01:06;23.90;84.60
56861;DHT22;42744;51.094;3.490;2022-08-30T17:03:32;23.90;85.90
56861;DHT22;42744;51.094;3.490;2022-08-30T17:05:58;23.90;85.20
56861;DHT22;42744;51.094;3.490;2022-08-30T17:08:24;23.80;85.60
56861;DHT22;42744;51.094;3.490;2022-08-30T17:10:50;23.80;85.80
56861;DHT22;42744;51.094;3.490;2022-08-30T17:13:17;23.70;85.40